createdAt,value
2023-02-08T00:01:26.394Z,20.77
2023-02-08T00:03:53.142Z,19.63
2023-02-08T00:06:19.837Z,20.83
2023-02-08T00:08:46.727Z,20.65
2023-02-08T00:11:13.372Z,21.45
2023-02-08T00:13:42.265Z,22.45
2023-02-08T00:16:09.512Z,24.45
2023-02-08T00:18:35.998Z,24.80
2023-02-08T00:21:07.749Z,26.13
2023-02-08T00:23:34.418Z,32.00
2023-02-08T00:26:00.836Z,31.65
2023-02-08T00:28:27.330Z,33.05
2023-02-08T00:30:53.959Z,29.58
2023-02-08T00:33:20.754Z,35.53
2023-02-08T00:35:47.242Z,35.85
2023-02-08T00:38:13.746Z,38.75
2023-02-08T00:40:40.562Z,38.15
2023-02-08T00:43:07.334Z,32.33
2023-02-08T00:45:34.077Z,25.40
2023-02-08T00:48:00.622Z,23.85
2023-02-08T00:50:27.125Z,28.88
2023-02-08T00:52:53.554Z,28.63
2023-02-08T00:55:19.954Z,27.50
2023-02-08T00:57:46.375Z,25.05
2023-02-08T01:00:13.252Z,25.35
2023-02-08T01:02:39.707Z,26.42
2023-02-08T01:05:06.453Z,28.05
2023-02-08T01:07:32.932Z,27.13
2023-02-08T01:10:00.595Z,28.83
2023-02-08T01:12:27.103Z,28.65
2023-02-08T01:14:53.510Z,27.58
2023-02-08T01:17:19.895Z,27.45
2023-02-08T01:19:46.392Z,27.00
2023-02-08T01:22:12.876Z,26.60
2023-02-08T01:24:39.302Z,26.50
2023-02-08T01:27:05.707Z,24.98
2023-02-08T01:29:32.137Z,25.42
2023-02-08T01:31:58.546Z,24.65
2023-02-08T01:34:24.950Z,29.45
2023-02-08T01:36:51.401Z,26.20
2023-02-08T01:39:17.850Z,27.80
2023-02-08T01:41:46.494Z,26.65
2023-02-08T01:44:13.468Z,25.85
2023-02-08T01:46:42.265Z,26.42
2023-02-08T01:49:14.736Z,26.10
2023-02-08T01:51:55.310Z,23.83
2023-02-08T01:54:25.022Z,23.92
2023-02-08T01:56:51.822Z,24.52
2023-02-08T01:59:24.040Z,23.20
2023-02-08T02:01:54.533Z,24.92
2023-02-08T02:04:21.914Z,19.45
2023-02-08T02:06:54.527Z,22.08
2023-02-08T02:09:26.259Z,20.83
2023-02-08T02:11:54.567Z,23.23
2023-02-08T02:14:22.279Z,20.85
2023-02-08T02:16:48.897Z,24.52
2023-02-08T02:19:31.254Z,21.35
2023-02-08T02:22:30.056Z,21.17
2023-02-08T02:25:41.540Z,20.50
2023-02-08T02:28:45.626Z,20.48
2023-02-08T02:31:15.062Z,24.27
2023-02-08T02:33:58.491Z,21.25
2023-02-08T02:36:37.016Z,19.90
2023-02-08T02:39:20.969Z,21.38
2023-02-08T02:42:19.694Z,21.13
2023-02-08T02:44:58.300Z,19.48
2023-02-08T02:48:10.302Z,21.80
2023-02-08T02:51:15.385Z,23.92
2023-02-08T02:53:56.016Z,21.48
2023-02-08T02:56:27.604Z,22.40
2023-02-08T02:58:59.062Z,20.80
2023-02-08T03:01:26.130Z,21.42
2023-02-08T03:03:54.447Z,21.77
2023-02-08T03:06:36.118Z,21.73
2023-02-08T03:09:30.821Z,22.77
2023-02-08T03:12:11.185Z,24.73
2023-02-08T03:14:46.458Z,21.30
2023-02-08T03:17:31.443Z,21.58
2023-02-08T03:20:24.028Z,24.63
2023-02-08T03:22:59.444Z,23.15
2023-02-08T03:25:42.691Z,22.58
2023-02-08T03:28:28.713Z,21.50
2023-02-08T03:31:11.537Z,21.58
2023-02-08T03:33:58.133Z,22.13
2023-02-08T03:36:47.708Z,23.02
2023-02-08T03:39:20.977Z,24.02
2023-02-08T03:41:51.523Z,20.00
2023-02-08T03:44:23.596Z,22.42
2023-02-08T03:46:54.993Z,21.92
2023-02-08T03:49:27.662Z,24.08
2023-02-08T03:51:57.635Z,23.08
2023-02-08T03:54:28.131Z,20.60
2023-02-08T03:57:13.573Z,22.10
2023-02-08T03:59:43.572Z,22.83
2023-02-08T04:02:16.875Z,21.73
2023-02-08T04:04:46.965Z,23.02
2023-02-08T04:07:14.063Z,22.02
2023-02-08T04:09:40.522Z,23.45
2023-02-08T04:12:07.421Z,23.98
2023-02-08T04:14:33.871Z,23.45
2023-02-08T04:17:00.313Z,23.17
2023-02-08T04:19:26.758Z,21.75
2023-02-08T04:21:53.177Z,23.00
2023-02-08T04:24:20.275Z,23.23
2023-02-08T04:26:47.225Z,24.13
2023-02-08T04:29:13.819Z,24.38
2023-02-08T04:31:40.406Z,20.83
2023-02-08T04:34:07.036Z,21.60
2023-02-08T04:36:33.500Z,21.80
2023-02-08T04:38:59.933Z,23.10
2023-02-08T04:41:26.356Z,23.50
2023-02-08T04:43:52.831Z,25.05
2023-02-08T04:46:19.333Z,25.85
2023-02-08T04:48:45.766Z,31.77
2023-02-08T04:51:12.175Z,55.92
2023-02-08T04:53:38.624Z,62.38
2023-02-08T04:56:05.297Z,42.28
2023-02-08T04:58:31.727Z,34.30
2023-02-08T05:00:58.157Z,68.53
2023-02-08T05:03:24.690Z,45.33
2023-02-08T05:05:58.629Z,25.55
2023-02-08T05:08:25.264Z,21.83
2023-02-08T05:10:51.777Z,21.67
2023-02-08T05:13:18.307Z,21.23
2023-02-08T05:15:44.759Z,19.10
2023-02-08T05:18:11.180Z,21.48
2023-02-08T05:20:37.590Z,24.65
2023-02-08T05:23:04.084Z,20.88
2023-02-08T05:25:30.497Z,20.58
2023-02-08T05:27:56.998Z,21.73
2023-02-08T05:30:23.439Z,24.52
2023-02-08T05:32:49.866Z,23.10
2023-02-08T05:35:16.408Z,24.25
2023-02-08T05:37:42.803Z,21.02
2023-02-08T05:40:09.978Z,21.38
2023-02-08T05:42:36.531Z,25.65
2023-02-08T05:45:03.026Z,23.15
2023-02-08T05:47:29.401Z,25.00
2023-02-08T05:49:55.795Z,21.58
2023-02-08T05:52:22.240Z,22.40
2023-02-08T05:54:48.634Z,25.55
2023-02-08T05:57:15.065Z,21.75
2023-02-08T05:59:41.455Z,26.52
2023-02-08T06:02:07.870Z,23.67
2023-02-08T06:04:34.326Z,25.00
2023-02-08T06:07:00.705Z,23.25
2023-02-08T06:09:27.107Z,23.13
2023-02-08T06:11:53.541Z,25.38
2023-02-08T06:17:08.628Z,21.88
2023-02-08T06:19:46.615Z,23.45
2023-02-08T06:22:13.152Z,23.30
2023-02-08T06:24:39.555Z,20.75
2023-02-08T06:27:06.208Z,22.52
2023-02-08T06:29:32.649Z,22.35
2023-02-08T06:31:59.203Z,23.90
2023-02-08T06:34:25.678Z,22.85
2023-02-08T06:36:52.098Z,21.77
2023-02-08T06:39:18.523Z,21.42
2023-02-08T06:41:45.001Z,25.60
2023-02-08T06:44:11.515Z,24.25
2023-02-08T06:46:37.960Z,23.88
2023-02-08T06:49:04.395Z,26.25
2023-02-08T06:51:30.898Z,24.55
2023-02-08T06:53:57.353Z,25.42
2023-02-08T06:56:23.789Z,26.40
2023-02-08T06:58:50.392Z,25.55
2023-02-08T07:01:16.833Z,26.60
2023-02-08T07:03:43.310Z,27.00
2023-02-08T07:06:17.625Z,25.50
2023-02-08T07:08:44.837Z,28.33
2023-02-08T07:11:14.313Z,28.40
2023-02-08T07:13:40.767Z,28.33
2023-02-08T07:16:09.325Z,28.00
2023-02-08T07:18:37.017Z,28.02
2023-02-08T07:21:03.870Z,27.15
2023-02-08T07:23:30.505Z,27.85
2023-02-08T07:26:02.050Z,29.58
2023-02-08T07:28:29.151Z,28.67
2023-02-08T07:31:05.185Z,26.35
2023-02-08T07:33:31.686Z,30.02
2023-02-08T07:35:58.343Z,26.90
2023-02-08T07:38:24.821Z,29.55
2023-02-08T07:40:51.304Z,29.35
2023-02-08T07:43:17.739Z,29.33
2023-02-08T07:45:44.434Z,28.88
2023-02-08T07:48:10.823Z,28.25
2023-02-08T07:50:37.361Z,27.40
2023-02-08T07:53:03.783Z,25.38
2023-02-08T07:55:32.665Z,26.95
2023-02-08T07:57:59.161Z,28.73
2023-02-08T08:00:26.926Z,27.35
2023-02-08T08:02:53.972Z,32.15
2023-02-08T08:05:21.640Z,29.00
2023-02-08T08:07:48.031Z,27.92
2023-02-08T08:10:14.548Z,30.38
2023-02-08T08:12:41.846Z,29.20
2023-02-08T08:15:08.504Z,31.65
2023-02-08T08:17:53.149Z,31.00
2023-02-08T08:20:19.618Z,30.30
2023-02-08T08:22:46.988Z,29.58
2023-02-08T08:25:14.055Z,29.15
2023-02-08T08:27:41.091Z,30.33
2023-02-08T08:30:13.530Z,29.15
2023-02-08T08:32:40.254Z,33.88
2023-02-08T08:35:07.810Z,32.92
2023-02-08T08:37:35.147Z,28.60
2023-02-08T08:40:01.962Z,27.02
2023-02-08T08:42:28.442Z,27.52
2023-02-08T08:44:55.079Z,29.23
2023-02-08T08:47:21.717Z,28.23
2023-02-08T08:49:48.334Z,30.67
2023-02-08T08:52:17.692Z,30.90
2023-02-08T08:54:44.162Z,29.08
2023-02-08T08:57:10.628Z,29.33
2023-02-08T08:59:37.024Z,30.35
2023-02-08T09:02:07.146Z,31.70
2023-02-08T09:04:37.111Z,31.45
2023-02-08T09:07:03.528Z,32.05
2023-02-08T09:09:30.050Z,31.00
2023-02-08T09:11:56.443Z,30.50
2023-02-08T09:14:22.946Z,30.95
2023-02-08T09:16:52.256Z,35.90
2023-02-08T09:19:19.088Z,28.67
2023-02-08T09:21:45.757Z,29.67
2023-02-08T09:24:14.974Z,29.55
2023-02-08T09:26:41.457Z,22.50
2023-02-08T09:29:08.518Z,23.95
2023-02-08T09:31:37.898Z,21.20
2023-02-08T09:34:06.141Z,20.75
2023-02-08T09:36:39.660Z,17.10
2023-02-08T09:39:14.417Z,17.00
2023-02-08T09:41:52.855Z,14.98
2023-02-08T09:44:37.457Z,17.05
2023-02-08T09:47:14.094Z,15.00
2023-02-08T09:49:58.692Z,16.15
2023-02-08T09:52:34.556Z,14.98
2023-02-08T09:55:10.652Z,14.35
2023-02-08T09:57:38.481Z,16.02
2023-02-08T10:00:12.821Z,17.17
2023-02-08T10:02:42.950Z,22.60
2023-02-08T10:05:14.754Z,15.05
2023-02-08T10:07:43.010Z,12.40
2023-02-08T10:10:31.308Z,12.23
2023-02-08T10:13:14.050Z,13.02
2023-02-08T10:16:11.468Z,14.07
2023-02-08T10:18:59.708Z,12.55
2023-02-08T10:21:48.177Z,12.73
2023-02-08T10:24:24.828Z,14.60
2023-02-08T10:27:09.675Z,11.85
2023-02-08T10:29:45.191Z,14.98
2023-02-08T10:32:18.800Z,12.35
2023-02-08T10:34:54.338Z,11.77
2023-02-08T10:37:30.098Z,13.05
2023-02-08T10:40:00.172Z,11.60
2023-02-08T10:42:28.669Z,12.25
2023-02-08T10:45:22.458Z,13.85
2023-02-08T10:47:54.839Z,10.73
2023-02-08T10:50:30.648Z,12.43
2023-02-08T10:52:57.250Z,15.35
2023-02-08T10:55:23.891Z,13.65
2023-02-08T10:57:53.990Z,13.63
2023-02-08T11:00:26.699Z,14.32
2023-02-08T11:02:55.269Z,13.88
2023-02-08T11:05:33.566Z,13.07
2023-02-08T11:08:16.040Z,13.90
2023-02-08T11:11:05.059Z,13.48
2023-02-08T11:13:38.620Z,13.10
2023-02-08T11:16:09.344Z,12.18
2023-02-08T11:18:39.854Z,13.23
2023-02-08T11:21:11.188Z,14.45
2023-02-08T11:23:41.480Z,14.32
2023-02-08T11:26:36.492Z,12.52
2023-02-08T11:29:18.759Z,12.80
2023-02-08T11:32:26.675Z,11.52
2023-02-08T11:35:13.262Z,12.60
2023-02-08T11:37:47.484Z,13.75
2023-02-08T11:40:21.308Z,13.43
2023-02-08T11:42:47.967Z,12.85
2023-02-08T11:45:22.448Z,12.15
2023-02-08T11:47:50.047Z,13.85
2023-02-08T11:50:31.834Z,11.20
2023-02-08T11:53:03.438Z,12.68
2023-02-08T11:58:13.179Z,13.82
2023-02-08T12:00:40.890Z,11.90
2023-02-08T12:03:38.744Z,13.07
2023-02-08T12:06:17.901Z,13.00
2023-02-08T12:08:53.215Z,12.63
2023-02-08T12:11:37.411Z,12.40
2023-02-08T12:14:48.289Z,12.35
2023-02-08T12:17:39.952Z,10.80
2023-02-08T12:20:28.341Z,12.45
2023-02-08T12:23:16.675Z,13.77
2023-02-08T12:26:20.053Z,13.80
2023-02-08T12:29:12.959Z,11.05
2023-02-08T12:31:57.664Z,11.27
2023-02-08T12:34:55.043Z,11.60
2023-02-08T12:37:52.443Z,13.00
2023-02-08T12:40:55.155Z,12.52
2023-02-08T12:43:27.757Z,11.00
2023-02-08T12:46:16.709Z,11.48
2023-02-08T12:49:13.831Z,13.35
2023-02-08T12:52:11.271Z,12.07
2023-02-08T12:54:42.213Z,12.43
2023-02-08T12:57:14.274Z,13.57
2023-02-08T12:59:47.210Z,12.13
2023-02-08T13:02:44.538Z,12.82
2023-02-08T13:05:19.296Z,12.63
2023-02-08T13:07:55.329Z,10.80
2023-02-08T13:10:51.346Z,12.35
2023-02-08T13:13:28.287Z,14.07
2023-02-08T13:16:10.354Z,12.93
2023-02-08T13:19:11.906Z,13.68
2023-02-08T13:21:43.108Z,11.95
2023-02-08T13:24:24.766Z,13.38
2023-02-08T13:29:19.699Z,12.25
2023-02-08T13:32:15.074Z,13.18
2023-02-08T13:34:49.089Z,12.50
2023-02-08T13:37:30.950Z,12.70
2023-02-08T13:40:02.500Z,11.63
2023-02-08T13:42:38.097Z,13.40
2023-02-08T13:45:06.333Z,15.32
2023-02-08T13:47:38.962Z,14.75
2023-02-08T13:50:46.149Z,13.50
2023-02-08T13:53:14.789Z,15.48
2023-02-08T13:56:06.227Z,14.65
2023-02-08T13:59:00.976Z,13.93
2023-02-08T14:01:33.149Z,18.30
2023-02-08T14:04:09.793Z,14.85
2023-02-08T14:06:58.722Z,15.88
2023-02-08T14:09:28.703Z,13.00
2023-02-08T14:12:11.166Z,13.80
2023-02-08T14:14:38.790Z,14.95
2023-02-08T14:17:05.151Z,10.52
2023-02-08T14:19:33.522Z,13.77
2023-02-08T14:22:11.418Z,12.82
2023-02-08T14:25:00.502Z,15.30
2023-02-08T14:27:42.171Z,13.52
2023-02-08T14:32:41.334Z,12.85
2023-02-08T14:35:13.825Z,12.90
2023-02-08T14:37:42.548Z,13.70
2023-02-08T14:40:24.383Z,12.88
2023-02-08T14:42:57.400Z,12.90
2023-02-08T14:45:44.612Z,13.25
2023-02-08T14:48:26.866Z,11.93
2023-02-08T14:51:08.947Z,14.43
2023-02-08T14:53:50.912Z,11.00
2023-02-08T14:56:28.160Z,11.70
2023-02-08T14:59:13.382Z,13.43
2023-02-08T15:01:47.949Z,12.75
2023-02-08T15:04:18.279Z,13.30
2023-02-08T15:06:53.984Z,11.18
2023-02-08T15:09:29.542Z,12.35
2023-02-08T15:11:59.549Z,11.77
2023-02-08T15:14:26.972Z,10.98
2023-02-08T15:16:55.442Z,8.55
2023-02-08T15:19:26.048Z,8.77
2023-02-08T15:21:52.598Z,8.85
2023-02-08T15:24:24.201Z,8.38
2023-02-08T15:29:42.967Z,8.63
2023-02-08T15:32:16.444Z,9.90
2023-02-08T15:34:45.303Z,8.23
2023-02-08T15:37:19.388Z,11.18
2023-02-08T15:39:50.418Z,11.57
2023-02-08T15:42:19.538Z,10.13
2023-02-08T15:44:47.110Z,9.02
2023-02-08T15:47:18.306Z,8.93
2023-02-08T15:49:49.795Z,8.02
2023-02-08T15:54:48.359Z,10.63
2023-02-08T15:57:44.611Z,9.07
2023-02-08T16:00:16.635Z,9.70
2023-02-08T16:02:44.089Z,8.95
2023-02-08T16:05:19.382Z,11.05
2023-02-08T16:07:47.588Z,10.48
2023-02-08T16:10:24.218Z,9.30
2023-02-08T16:12:57.406Z,11.73
2023-02-08T16:15:50.532Z,11.40
2023-02-08T16:18:49.946Z,10.23
2023-02-08T16:21:32.836Z,13.43
2023-02-08T16:24:14.193Z,9.95
2023-02-08T16:26:45.354Z,13.32
2023-02-08T16:29:25.904Z,11.55
2023-02-08T16:32:03.586Z,25.33
2023-02-08T16:34:35.538Z,13.75
2023-02-08T16:37:04.650Z,13.73
2023-02-08T16:39:50.027Z,14.80
2023-02-08T16:42:21.354Z,13.23
2023-02-08T16:45:12.984Z,12.68
2023-02-08T16:47:54.561Z,14.65
2023-02-08T16:50:23.885Z,12.82
2023-02-08T16:53:01.684Z,14.38
2023-02-08T16:55:31.640Z,13.23
2023-02-08T16:57:59.020Z,15.55
2023-02-08T17:00:30.003Z,12.35
2023-02-08T17:02:56.927Z,14.52
2023-02-08T17:05:29.471Z,13.02
2023-02-08T17:07:56.129Z,13.38
2023-02-08T17:10:32.672Z,13.15
2023-02-08T17:13:17.509Z,13.07
2023-02-08T17:15:48.541Z,16.25
2023-02-08T17:18:15.129Z,16.23
2023-02-08T17:20:42.151Z,16.15
2023-02-08T17:23:09.919Z,15.80
2023-02-08T17:25:36.749Z,16.25
2023-02-08T17:28:06.886Z,14.80
2023-02-08T17:30:36.827Z,15.48
2023-02-08T17:33:03.942Z,16.27
2023-02-08T17:35:30.565Z,17.02
2023-02-08T17:37:58.605Z,20.85
2023-02-08T17:40:29.577Z,21.40
2023-02-08T17:42:55.978Z,21.25
2023-02-08T17:45:22.828Z,19.90
2023-02-08T17:47:49.302Z,20.27
2023-02-08T17:50:18.146Z,22.33
2023-02-08T17:52:45.714Z,20.52
2023-02-08T17:55:15.245Z,22.88
2023-02-08T17:57:43.256Z,24.88
2023-02-08T18:00:20.339Z,25.42
2023-02-08T18:02:49.956Z,25.52
2023-02-08T18:05:18.624Z,24.05
2023-02-08T18:07:45.585Z,23.20
2023-02-08T18:10:14.318Z,18.85
2023-02-08T18:12:41.062Z,23.05
2023-02-08T18:15:10.068Z,19.40
2023-02-08T18:17:36.503Z,21.15
2023-02-08T18:20:03.601Z,20.30
2023-02-08T18:22:30.177Z,20.15
2023-02-08T18:24:56.664Z,21.75
2023-02-08T18:27:25.014Z,22.15
2023-02-08T18:29:51.782Z,20.70
2023-02-08T18:32:20.182Z,18.83
2023-02-08T18:34:46.907Z,20.40
2023-02-08T18:37:13.559Z,19.58
2023-02-08T18:39:40.049Z,21.08
2023-02-08T18:42:06.504Z,21.75
2023-02-08T18:44:36.646Z,20.65
2023-02-08T18:47:03.840Z,23.02
2023-02-08T18:49:31.203Z,22.42
2023-02-08T18:51:58.140Z,22.40
2023-02-08T18:54:24.547Z,18.70
2023-02-08T18:56:53.911Z,18.73
2023-02-08T18:59:20.445Z,19.58
2023-02-08T19:01:47.045Z,18.80
2023-02-08T19:04:13.521Z,17.80
2023-02-08T19:06:39.982Z,18.17
2023-02-08T19:09:07.670Z,17.08
2023-02-08T19:11:37.296Z,18.27
2023-02-08T19:14:10.206Z,22.15
2023-02-08T19:16:38.176Z,20.40
2023-02-08T19:19:06.613Z,15.90
2023-02-08T19:21:34.655Z,16.48
2023-02-08T19:24:02.222Z,19.67
2023-02-08T19:26:31.078Z,17.65
2023-02-08T19:28:59.337Z,16.90
2023-02-08T19:31:27.451Z,17.35
2023-02-08T19:33:58.502Z,18.17
2023-02-08T19:36:28.732Z,16.83
2023-02-08T19:38:56.229Z,17.10
2023-02-08T19:41:28.745Z,17.17
2023-02-08T19:43:55.362Z,15.60
2023-02-08T19:46:23.663Z,16.15
2023-02-08T19:48:52.373Z,15.85
2023-02-08T19:51:19.552Z,16.90
2023-02-08T19:53:46.105Z,15.82
2023-02-08T19:56:16.004Z,17.90
2023-02-08T19:58:43.181Z,17.38
2023-02-08T20:01:19.412Z,16.05
2023-02-08T20:03:47.215Z,14.98
2023-02-08T20:06:25.463Z,15.68
2023-02-08T20:08:52.189Z,15.32
2023-02-08T20:11:27.147Z,16.63
2023-02-08T20:13:55.255Z,17.92
2023-02-08T20:16:22.882Z,16.15
2023-02-08T20:18:50.037Z,13.25
2023-02-08T20:21:17.395Z,12.70
2023-02-08T20:23:43.829Z,11.48
2023-02-08T20:26:27.724Z,9.10
2023-02-08T20:28:58.916Z,13.40
2023-02-08T20:31:31.303Z,10.40
2023-02-08T20:33:59.907Z,12.95
2023-02-08T20:36:29.247Z,10.30
2023-02-08T20:38:57.014Z,9.77
2023-02-08T20:41:25.717Z,9.27
2023-02-08T20:43:53.177Z,10.23
2023-02-08T20:46:25.652Z,12.30
2023-02-08T20:48:53.227Z,10.45
2023-02-08T20:51:23.108Z,10.05
2023-02-08T20:53:51.506Z,9.55
2023-02-08T20:56:24.474Z,6.65
2023-02-08T20:58:51.765Z,8.65
2023-02-08T21:01:26.886Z,8.23
2023-02-08T21:03:58.201Z,6.47
2023-02-08T21:06:31.143Z,7.63
2023-02-08T21:08:59.822Z,8.80
2023-02-08T21:11:29.474Z,7.20
2023-02-08T21:13:56.906Z,6.28
2023-02-08T21:16:23.801Z,6.03
2023-02-08T21:18:50.432Z,6.40
2023-02-08T21:21:17.520Z,7.05
2023-02-08T21:23:44.563Z,6.93
2023-02-08T21:26:14.701Z,6.97
2023-02-08T21:28:41.495Z,7.43
2023-02-08T21:31:12.053Z,7.88
2023-02-08T21:33:38.514Z,6.28
2023-02-08T21:36:10.209Z,6.00
2023-02-08T21:38:36.851Z,5.25
2023-02-08T21:41:10.867Z,6.68
2023-02-08T21:43:37.748Z,5.57
2023-02-08T21:46:08.752Z,6.00
2023-02-08T21:48:55.749Z,5.07
2023-02-08T21:51:42.665Z,5.53
2023-02-08T21:54:45.139Z,5.25
2023-02-08T21:57:22.681Z,4.60
2023-02-08T21:59:51.527Z,6.00
2023-02-08T22:02:27.835Z,4.93
2023-02-08T22:05:18.229Z,4.63
2023-02-08T22:07:46.619Z,4.35
2023-02-08T22:10:15.338Z,5.45
2023-02-08T22:12:42.037Z,5.22
2023-02-08T22:15:11.666Z,4.80
2023-02-08T22:17:38.297Z,6.03
2023-02-08T22:20:05.656Z,6.10
2023-02-08T22:22:32.089Z,4.60
2023-02-08T22:24:58.475Z,5.97
2023-02-08T22:27:25.059Z,4.65
2023-02-08T22:29:51.486Z,4.85
2023-02-08T22:32:17.957Z,4.40
2023-02-08T22:34:45.542Z,4.82
2023-02-08T22:37:12.989Z,5.38
2023-02-08T22:39:39.473Z,5.57
2023-02-08T22:42:13.469Z,8.32
2023-02-08T22:44:42.272Z,4.95
2023-02-08T22:47:10.484Z,6.25
2023-02-08T22:49:38.168Z,4.35
2023-02-08T22:52:06.249Z,5.47
2023-02-08T22:54:33.429Z,5.80
2023-02-08T22:56:59.945Z,6.45
2023-02-08T22:59:26.550Z,6.20
2023-02-08T23:01:53.152Z,5.82
2023-02-08T23:04:19.633Z,5.10
2023-02-08T23:06:46.978Z,5.93
2023-02-08T23:09:13.819Z,6.05
2023-02-08T23:11:40.278Z,7.50
2023-02-08T23:15:03.187Z,4.88
2023-02-08T23:17:30.654Z,5.75
2023-02-08T23:19:57.110Z,5.57
2023-02-08T23:22:23.495Z,6.07
2023-02-08T23:24:49.897Z,4.38
2023-02-08T23:27:25.428Z,5.30
2023-02-08T23:29:51.859Z,7.18
2023-02-08T23:32:18.278Z,5.30
2023-02-08T23:34:44.793Z,4.93
2023-02-08T23:37:11.209Z,4.93
2023-02-08T23:39:37.604Z,5.65
2023-02-08T23:42:04.273Z,4.38
2023-02-08T23:44:30.720Z,7.25
2023-02-08T23:46:57.200Z,5.47
2023-02-08T23:49:23.652Z,6.97
2023-02-08T23:51:50.062Z,5.93
2023-02-08T23:54:16.467Z,5.45
2023-02-08T23:56:42.911Z,6.50
2023-02-08T23:59:10.643Z,6.78
